createdAt,value
2023-01-08T00:02:16.332Z,2.70
2023-01-08T00:04:44.509Z,1.77
2023-01-08T00:07:12.606Z,2.00
2023-01-08T00:09:40.465Z,3.20
2023-01-08T00:12:09.824Z,1.83
2023-01-08T00:14:37.842Z,2.17
2023-01-08T00:17:05.793Z,1.17
2023-01-08T00:19:34.202Z,3.50
2023-01-08T00:22:02.260Z,2.40
2023-01-08T00:24:30.208Z,2.10
2023-01-08T00:26:58.233Z,1.37
2023-01-08T00:29:27.585Z,1.70
2023-01-08T00:31:55.500Z,2.47
2023-01-08T00:34:23.389Z,2.00
2023-01-08T00:36:51.518Z,2.53
2023-01-08T00:39:19.420Z,2.47
2023-01-08T00:41:48.294Z,1.67
2023-01-08T00:44:16.232Z,2.67
2023-01-08T00:46:45.542Z,2.97
2023-01-08T00:49:13.461Z,2.93
2023-01-08T00:51:41.438Z,3.83
2023-01-08T00:54:11.580Z,1.80
2023-01-08T00:56:39.604Z,2.57
2023-01-08T00:59:07.534Z,1.83
2023-01-08T01:01:35.576Z,2.37
2023-01-08T01:04:05.516Z,2.53
2023-01-08T01:06:33.717Z,2.97
2023-01-08T01:09:01.597Z,4.97
2023-01-08T01:11:29.898Z,3.60
2023-01-08T01:13:58.181Z,3.83
2023-01-08T01:16:26.476Z,3.33
2023-01-08T01:18:56.604Z,4.13
2023-01-08T01:21:28.279Z,4.00
2023-01-08T01:23:57.661Z,3.27
2023-01-08T01:26:26.555Z,2.77
2023-01-08T01:28:56.105Z,2.83
2023-01-08T01:31:25.184Z,2.30
2023-01-08T01:33:53.631Z,6.77
2023-01-08T01:36:23.702Z,2.63
2023-01-08T01:38:55.377Z,2.70
2023-01-08T01:41:28.179Z,2.30
2023-01-08T01:43:57.630Z,2.33
2023-01-08T01:46:36.361Z,2.27
2023-01-08T01:49:09.467Z,2.47
2023-01-08T01:51:39.662Z,3.83
2023-01-08T01:54:12.215Z,3.30
2023-01-08T01:56:40.606Z,2.33
2023-01-08T01:59:08.574Z,2.53
2023-01-08T02:01:37.024Z,2.83
2023-01-08T02:04:05.657Z,3.53
2023-01-08T02:06:38.161Z,3.17
2023-01-08T02:09:15.530Z,3.00
2023-01-08T02:12:09.911Z,1.90
2023-01-08T02:14:43.026Z,2.30
2023-01-08T02:17:14.311Z,3.27
2023-01-08T02:19:48.601Z,3.20
2023-01-08T02:22:28.890Z,2.53
2023-01-08T02:25:10.628Z,2.77
2023-01-08T02:27:42.025Z,3.13
2023-01-08T02:30:11.931Z,3.60
2023-01-08T02:32:41.579Z,1.80
2023-01-08T02:35:11.850Z,2.63
2023-01-08T02:37:41.385Z,2.70
2023-01-08T02:40:19.580Z,2.33
2023-01-08T02:42:55.506Z,2.63
2023-01-08T02:45:36.102Z,2.67
2023-01-08T02:48:10.773Z,1.87
2023-01-08T02:50:41.783Z,2.70
2023-01-08T02:53:14.071Z,2.43
2023-01-08T02:55:45.667Z,2.13
2023-01-08T02:58:16.146Z,2.50
2023-01-08T03:00:46.663Z,2.33
2023-01-08T03:03:18.534Z,2.07
2023-01-08T03:05:50.902Z,2.27
2023-01-08T03:08:20.907Z,2.43
2023-01-08T03:10:54.087Z,4.33
2023-01-08T03:13:26.951Z,3.10
2023-01-08T03:15:59.036Z,2.00
2023-01-08T03:18:34.143Z,2.10
2023-01-08T03:21:04.215Z,2.53
2023-01-08T03:23:35.933Z,2.20
2023-01-08T03:26:06.133Z,2.37
2023-01-08T03:28:40.481Z,1.37
2023-01-08T03:31:10.019Z,2.23
2023-01-08T03:33:39.359Z,2.47
2023-01-08T03:36:09.415Z,1.60
2023-01-08T03:38:42.907Z,1.73
2023-01-08T03:41:14.806Z,1.77
2023-01-08T03:43:44.073Z,2.00
2023-01-08T03:46:17.630Z,1.73
2023-01-08T03:48:46.870Z,1.23
2023-01-08T03:51:14.821Z,1.50
2023-01-08T03:53:42.985Z,1.77
2023-01-08T03:56:10.983Z,1.70
2023-01-08T03:58:39.056Z,1.73
2023-01-08T04:01:08.578Z,1.27
2023-01-08T04:03:36.966Z,2.50
2023-01-08T04:06:05.033Z,2.03
2023-01-08T04:08:33.084Z,1.80
2023-01-08T04:11:01.028Z,1.67
2023-01-08T04:13:28.950Z,1.73
2023-01-08T04:15:58.324Z,2.47
2023-01-08T04:18:27.657Z,1.37
2023-01-08T04:20:55.983Z,0.80
2023-01-08T04:23:23.952Z,1.07
2023-01-08T04:25:51.844Z,1.17
2023-01-08T04:28:20.604Z,0.93
2023-01-08T04:30:48.944Z,0.93
2023-01-08T04:33:16.984Z,2.17
2023-01-08T04:35:46.181Z,1.10
2023-01-08T04:38:14.088Z,2.00
2023-01-08T04:40:42.146Z,0.97
2023-01-08T04:43:10.016Z,1.37
2023-01-08T04:45:38.057Z,2.10
2023-01-08T04:48:06.561Z,1.23
2023-01-08T04:50:34.485Z,0.87
2023-01-08T04:53:04.002Z,0.80
2023-01-08T04:55:31.967Z,0.93
2023-01-08T04:58:00.035Z,0.60
2023-01-08T05:00:27.911Z,0.80
2023-01-08T05:02:56.332Z,1.63
2023-01-08T05:05:24.364Z,0.50
2023-01-08T05:07:52.317Z,0.83
2023-01-08T05:10:21.577Z,1.37
2023-01-08T05:12:49.584Z,1.87
2023-01-08T05:15:17.831Z,1.07
2023-01-08T05:17:45.873Z,1.97
2023-01-08T05:20:13.709Z,0.90
2023-01-08T05:22:41.636Z,0.80
2023-01-08T05:25:10.349Z,0.70
2023-01-08T05:27:39.545Z,0.60
2023-01-08T05:30:09.041Z,1.17
2023-01-08T05:32:36.874Z,0.47
2023-01-08T05:35:05.207Z,1.00
2023-01-08T05:37:36.122Z,0.80
2023-01-08T05:40:04.405Z,0.40
2023-01-08T05:42:34.456Z,0.83
2023-01-08T05:45:03.981Z,0.60
2023-01-08T05:47:32.202Z,1.20
2023-01-08T05:50:00.490Z,0.80
2023-01-08T05:52:29.104Z,1.47
2023-01-08T05:54:57.341Z,1.20
2023-01-08T05:57:25.363Z,1.23
2023-01-08T05:59:53.210Z,0.83
2023-01-08T06:02:22.767Z,2.57
2023-01-08T06:04:50.654Z,1.53
2023-01-08T06:07:18.866Z,0.50
2023-01-08T06:09:46.889Z,0.47
2023-01-08T06:12:14.835Z,0.90
2023-01-08T06:14:42.786Z,0.43
2023-01-08T06:17:10.716Z,0.60
2023-01-08T06:19:40.217Z,0.60
2023-01-08T06:22:08.424Z,1.37
2023-01-08T06:24:36.665Z,0.57
2023-01-08T06:27:04.653Z,0.63
2023-01-08T06:29:32.557Z,0.70
2023-01-08T06:32:01.098Z,2.20
2023-01-08T06:34:29.032Z,0.50
2023-01-08T06:36:58.449Z,0.57
2023-01-08T06:39:26.732Z,0.40
2023-01-08T06:41:54.696Z,0.97
2023-01-08T06:44:23.035Z,0.40
2023-01-08T06:46:51.205Z,0.40
2023-01-08T06:49:19.848Z,0.60
2023-01-08T06:51:47.846Z,1.00
2023-01-08T06:54:17.114Z,0.30
2023-01-08T06:56:53.336Z,0.40
2023-01-08T06:59:22.543Z,1.00
2023-01-08T07:01:50.923Z,0.67
2023-01-08T07:04:19.273Z,0.40
2023-01-08T07:06:47.505Z,0.73
2023-01-08T07:09:17.098Z,0.50
2023-01-08T07:11:45.229Z,0.60
2023-01-08T07:14:13.223Z,0.67
2023-01-08T07:16:41.090Z,1.50
2023-01-08T07:19:09.380Z,0.50
2023-01-08T07:21:37.306Z,0.90
2023-01-08T07:24:07.652Z,1.97
2023-01-08T07:26:37.379Z,1.17
2023-01-08T07:29:05.377Z,1.07
2023-01-08T07:31:33.558Z,1.07
2023-01-08T07:34:01.496Z,1.23
2023-01-08T07:36:29.497Z,0.60
2023-01-08T07:38:57.531Z,1.20
2023-01-08T07:41:25.492Z,0.93
2023-01-08T07:43:55.043Z,1.17
2023-01-08T07:46:23.724Z,0.90
2023-01-08T07:48:51.835Z,15.43
2023-01-08T07:51:19.735Z,8.67
2023-01-08T07:53:47.818Z,9.40
2023-01-08T07:56:15.821Z,5.40
2023-01-08T07:58:43.801Z,4.63
2023-01-08T08:01:13.477Z,4.00
2023-01-08T08:03:42.096Z,2.60
2023-01-08T08:06:10.391Z,2.37
2023-01-08T08:08:40.293Z,3.27
2023-01-08T08:11:10.059Z,2.50
2023-01-08T08:13:42.555Z,1.37
2023-01-08T08:16:10.537Z,1.30
2023-01-08T08:18:39.943Z,2.07
2023-01-08T08:21:07.820Z,2.17
2023-01-08T08:23:36.885Z,0.80
2023-01-08T08:26:05.450Z,1.07
2023-01-08T08:28:33.597Z,0.70
2023-01-08T08:31:01.855Z,0.90
2023-01-08T08:33:29.781Z,1.00
2023-01-08T08:35:59.200Z,1.10
2023-01-08T08:38:27.234Z,1.10
2023-01-08T08:40:55.363Z,1.07
2023-01-08T08:43:23.728Z,0.40
2023-01-08T08:45:51.647Z,0.80
2023-01-08T08:48:19.694Z,0.87
2023-01-08T08:50:47.888Z,0.80
2023-01-08T08:53:17.175Z,0.80
2023-01-08T08:55:45.344Z,1.57
2023-01-08T08:58:14.555Z,1.83
2023-01-08T09:00:44.427Z,2.83
2023-01-08T09:03:14.681Z,0.70
2023-01-08T09:05:43.209Z,0.93
2023-01-08T09:08:11.914Z,1.00
2023-01-08T09:10:43.491Z,0.90
2023-01-08T09:13:11.989Z,1.50
2023-01-08T09:15:40.172Z,3.70
2023-01-08T09:18:08.194Z,2.57
2023-01-08T09:20:36.440Z,2.77
2023-01-08T09:23:04.493Z,2.20
2023-01-08T09:25:32.919Z,1.73
2023-01-08T09:28:04.334Z,1.23
2023-01-08T09:30:32.346Z,1.60
2023-01-08T09:33:02.493Z,1.37
2023-01-08T09:35:31.185Z,1.60
2023-01-08T09:37:59.541Z,1.80
2023-01-08T09:40:33.151Z,0.97
2023-01-08T09:43:06.102Z,0.80
2023-01-08T09:45:38.320Z,1.47
2023-01-08T09:48:12.577Z,1.10
2023-01-08T09:50:40.874Z,0.87
2023-01-08T09:53:13.548Z,1.40
2023-01-08T09:55:42.665Z,1.50
2023-01-08T09:58:22.755Z,1.57
2023-01-08T10:00:51.628Z,1.67
2023-01-08T10:03:19.633Z,1.10
2023-01-08T10:05:47.912Z,1.97
2023-01-08T10:08:16.092Z,1.53
2023-01-08T10:10:45.742Z,1.70
2023-01-08T10:13:16.234Z,2.57
2023-01-08T10:15:44.177Z,1.30
2023-01-08T10:18:14.559Z,2.37
2023-01-08T10:20:42.471Z,2.07
2023-01-08T10:23:12.353Z,1.50
2023-01-08T10:25:52.723Z,1.10
2023-01-08T10:28:24.522Z,1.33
2023-01-08T10:30:53.948Z,1.60
2023-01-08T10:33:25.273Z,2.63
2023-01-08T10:35:58.111Z,1.67
2023-01-08T10:38:33.021Z,1.23
2023-01-08T10:41:04.440Z,1.27
2023-01-08T10:43:38.160Z,1.13
2023-01-08T10:46:09.617Z,1.20
2023-01-08T10:48:41.531Z,0.87
2023-01-08T10:51:24.597Z,1.57
2023-01-08T10:53:57.029Z,1.23
2023-01-08T10:56:27.305Z,0.70
2023-01-08T10:58:57.965Z,1.13
2023-01-08T11:01:28.610Z,1.40
2023-01-08T11:04:00.032Z,1.43
2023-01-08T11:06:31.523Z,1.47
2023-01-08T11:09:01.787Z,0.73
2023-01-08T11:11:34.850Z,1.07
2023-01-08T11:14:06.660Z,1.57
2023-01-08T11:16:37.649Z,2.97
2023-01-08T11:19:07.291Z,1.63
2023-01-08T11:21:37.061Z,1.23
2023-01-08T11:24:15.822Z,1.80
2023-01-08T11:26:47.087Z,1.57
2023-01-08T11:29:21.912Z,0.77
2023-01-08T11:31:56.958Z,0.63
2023-01-08T11:34:32.803Z,1.20
2023-01-08T11:37:06.017Z,0.80
2023-01-08T11:39:35.928Z,1.83
2023-01-08T11:42:31.727Z,1.23
2023-01-08T11:45:13.203Z,1.07
2023-01-08T11:48:06.506Z,0.60
2023-01-08T11:50:42.386Z,2.67
2023-01-08T11:53:23.487Z,0.67
2023-01-08T11:56:02.707Z,1.07
2023-01-08T11:58:45.180Z,1.20
2023-01-08T12:01:31.120Z,1.27
2023-01-08T12:04:19.454Z,0.60
2023-01-08T12:06:56.690Z,0.90
2023-01-08T12:09:39.029Z,1.03
2023-01-08T12:12:19.107Z,1.10
2023-01-08T12:14:59.355Z,1.27
2023-01-08T12:17:43.038Z,0.90
2023-01-08T12:20:21.899Z,1.13
2023-01-08T12:23:01.186Z,0.90
2023-01-08T12:25:55.973Z,1.70
2023-01-08T12:28:42.132Z,2.50
2023-01-08T12:31:25.616Z,2.07
2023-01-08T12:33:57.563Z,0.93
2023-01-08T12:36:29.958Z,0.50
2023-01-08T12:39:02.932Z,0.70
2023-01-08T12:41:34.597Z,0.80
2023-01-08T12:44:05.294Z,3.27
2023-01-08T12:46:36.640Z,0.83
2023-01-08T12:49:08.936Z,1.03
2023-01-08T12:51:40.285Z,1.77
2023-01-08T12:54:23.162Z,1.27
2023-01-08T12:56:56.745Z,0.77
2023-01-08T12:59:37.407Z,1.23
2023-01-08T13:02:19.648Z,1.13
2023-01-08T13:04:49.412Z,0.43
2023-01-08T13:07:24.117Z,1.23
2023-01-08T13:10:01.983Z,1.20
2023-01-08T13:12:35.878Z,2.30
2023-01-08T13:15:04.622Z,0.83
2023-01-08T13:17:32.533Z,0.83
2023-01-08T13:20:04.240Z,0.90
2023-01-08T13:22:34.270Z,1.93
2023-01-08T13:25:29.950Z,0.60
2023-01-08T13:27:58.735Z,1.47
2023-01-08T13:30:38.433Z,0.83
2023-01-08T13:33:38.065Z,0.50
2023-01-08T13:36:22.939Z,1.13
2023-01-08T13:39:02.869Z,0.87
2023-01-08T13:41:32.440Z,0.57
2023-01-08T13:44:04.306Z,0.50
2023-01-08T13:46:35.211Z,0.40
2023-01-08T13:49:05.624Z,0.33
2023-01-08T13:51:42.518Z,0.83
2023-01-08T13:54:23.823Z,0.27
2023-01-08T13:56:55.513Z,0.60
2023-01-08T13:59:38.752Z,0.60
2023-01-08T14:02:24.100Z,0.93
2023-01-08T14:04:53.196Z,0.70
2023-01-08T14:07:23.871Z,0.50
2023-01-08T14:09:51.806Z,0.87
2023-01-08T14:12:22.545Z,0.37
2023-01-08T14:14:53.750Z,0.30
2023-01-08T14:17:26.453Z,0.50
2023-01-08T14:19:54.540Z,1.13
2023-01-08T14:22:28.419Z,1.53
2023-01-08T14:24:59.226Z,3.07
2023-01-08T14:27:29.288Z,0.70
2023-01-08T14:29:57.605Z,0.60
2023-01-08T14:32:28.139Z,1.10
2023-01-08T14:34:58.582Z,0.63
2023-01-08T14:37:27.962Z,1.30
2023-01-08T14:39:56.030Z,1.07
2023-01-08T14:42:47.027Z,0.90
2023-01-08T14:45:21.543Z,4.03
2023-01-08T14:47:51.365Z,0.50
2023-01-08T14:50:22.122Z,0.93
2023-01-08T14:52:52.416Z,0.93
2023-01-08T14:55:21.845Z,0.33
2023-01-08T14:57:53.555Z,0.50
2023-01-08T15:00:26.038Z,0.40
2023-01-08T15:02:54.422Z,0.93
2023-01-08T15:05:27.713Z,1.27
2023-01-08T15:08:00.978Z,0.60
2023-01-08T15:10:39.348Z,0.57
2023-01-08T15:13:08.973Z,0.40
2023-01-08T15:15:51.326Z,0.73
2023-01-08T15:18:20.228Z,0.40
2023-01-08T15:20:48.124Z,0.40
2023-01-08T15:23:33.037Z,0.37
2023-01-08T15:26:01.438Z,0.40
2023-01-08T15:28:29.328Z,0.40
2023-01-08T15:30:58.114Z,0.70
2023-01-08T15:33:27.259Z,1.00
2023-01-08T15:35:56.112Z,1.20
2023-01-08T15:38:24.118Z,1.17
2023-01-08T15:40:54.292Z,0.80
2023-01-08T15:43:21.641Z,0.30
2023-01-08T15:45:51.397Z,0.80
2023-01-08T15:48:19.535Z,0.60
2023-01-08T15:50:47.577Z,0.77
2023-01-08T15:53:19.239Z,1.13
2023-01-08T15:55:47.518Z,1.33
2023-01-08T15:58:17.549Z,1.40
2023-01-08T16:00:47.449Z,1.30
2023-01-08T16:03:17.527Z,1.80
2023-01-08T16:05:45.421Z,1.80
2023-01-08T16:08:13.565Z,1.20
2023-01-08T16:10:41.612Z,0.87
2023-01-08T16:13:11.860Z,1.10
2023-01-08T16:15:41.748Z,1.00
2023-01-08T16:18:10.364Z,0.93
2023-01-08T16:20:39.315Z,1.20
2023-01-08T16:23:07.401Z,3.13
2023-01-08T16:25:35.370Z,0.80
2023-01-08T16:28:04.042Z,1.47
2023-01-08T16:30:32.318Z,1.23
2023-01-08T16:33:01.587Z,1.43
2023-01-08T16:35:29.473Z,1.40
2023-01-08T16:37:57.583Z,2.93
2023-01-08T16:40:25.440Z,2.37
2023-01-08T16:42:53.792Z,1.47
2023-01-08T16:45:21.769Z,2.97
2023-01-08T16:47:50.124Z,3.17
2023-01-08T16:50:19.458Z,3.37
2023-01-08T16:52:47.326Z,4.07
2023-01-08T16:55:15.214Z,4.10
2023-01-08T16:57:43.096Z,2.97
2023-01-08T17:00:12.428Z,3.10
2023-01-08T17:02:40.424Z,4.30
2023-01-08T17:05:08.942Z,5.73
2023-01-08T17:07:38.117Z,5.37
2023-01-08T17:10:07.078Z,3.93
2023-01-08T17:12:35.173Z,2.80
2023-01-08T17:15:03.303Z,4.40
2023-01-08T17:17:31.232Z,2.27
2023-01-08T17:19:59.231Z,1.90
2023-01-08T17:22:27.191Z,2.40
2023-01-08T17:24:56.605Z,2.53
2023-01-08T17:27:24.751Z,2.63
2023-01-08T17:29:52.884Z,1.30
2023-01-08T17:32:21.564Z,1.80
2023-01-08T17:34:49.457Z,1.67
2023-01-08T17:37:17.344Z,1.60
2023-01-08T17:39:45.590Z,2.00
2023-01-08T17:42:28.320Z,2.83
2023-01-08T17:44:58.576Z,1.40
2023-01-08T17:47:27.286Z,1.30
2023-01-08T17:49:56.911Z,1.27
2023-01-08T17:52:26.457Z,1.53
2023-01-08T17:54:55.059Z,1.73
2023-01-08T17:57:24.441Z,2.27
2023-01-08T17:59:52.352Z,1.80
2023-01-08T18:02:20.855Z,2.87
2023-01-08T18:04:49.026Z,2.53
2023-01-08T18:07:17.263Z,2.70
2023-01-08T18:09:45.667Z,4.27
2023-01-08T18:12:13.843Z,2.67
2023-01-08T18:14:44.109Z,3.37
2023-01-08T18:17:12.373Z,5.47
2023-01-08T18:19:40.427Z,2.33
2023-01-08T18:22:08.559Z,1.70
2023-01-08T18:24:37.153Z,2.40
2023-01-08T18:27:05.751Z,3.07
2023-01-08T18:29:34.001Z,1.87
2023-01-08T18:32:03.376Z,2.33
2023-01-08T18:34:32.480Z,1.43
2023-01-08T18:37:00.750Z,3.17
2023-01-08T18:39:29.838Z,3.70
2023-01-08T18:42:15.494Z,2.73
2023-01-08T18:44:43.335Z,3.50
2023-01-08T18:47:14.831Z,2.73
2023-01-08T18:49:42.673Z,2.17
2023-01-08T18:52:14.020Z,3.20
2023-01-08T18:54:42.296Z,2.93
2023-01-08T18:57:10.511Z,3.53
2023-01-08T18:59:38.716Z,3.80
2023-01-08T19:02:07.119Z,3.37
2023-01-08T19:04:37.126Z,1.87
2023-01-08T19:07:05.202Z,1.93
2023-01-08T19:09:33.575Z,3.67
2023-01-08T19:12:01.463Z,4.43
2023-01-08T19:14:31.458Z,4.37
2023-01-08T19:16:59.511Z,4.47
2023-01-08T19:19:29.240Z,7.30
2023-01-08T19:21:58.470Z,10.23
2023-01-08T19:24:26.692Z,8.53
2023-01-08T19:26:54.723Z,6.50
2023-01-08T19:29:22.980Z,4.20
2023-01-08T19:31:50.937Z,4.93
2023-01-08T19:34:19.202Z,3.83
2023-01-08T19:36:47.280Z,2.87
2023-01-08T19:39:16.707Z,3.20
2023-01-08T19:42:02.221Z,1.60
2023-01-08T19:44:30.497Z,2.03
2023-01-08T19:46:58.431Z,1.87
2023-01-08T19:49:26.676Z,2.23
2023-01-08T19:51:54.668Z,2.10
2023-01-08T19:54:25.904Z,3.13
2023-01-08T19:56:54.349Z,1.50
2023-01-08T19:59:22.826Z,1.63
2023-01-08T20:01:50.873Z,1.90
2023-01-08T20:04:19.399Z,1.37
2023-01-08T20:06:47.327Z,2.00
2023-01-08T20:09:15.476Z,1.20
2023-01-08T20:11:44.871Z,1.10
2023-01-08T20:14:12.878Z,1.73
2023-01-08T20:16:41.334Z,1.87
2023-01-08T20:19:10.551Z,1.87
2023-01-08T20:21:38.566Z,2.43
2023-01-08T20:24:09.897Z,2.33
2023-01-08T20:26:38.572Z,1.77
2023-01-08T20:29:08.965Z,1.80
2023-01-08T20:31:40.144Z,2.13
2023-01-08T20:34:11.661Z,1.73
2023-01-08T20:36:39.931Z,2.43
2023-01-08T20:39:10.511Z,2.50
2023-01-08T20:41:38.490Z,1.63
2023-01-08T20:44:08.981Z,2.60
2023-01-08T20:46:38.392Z,1.60
2023-01-08T20:49:08.972Z,1.90
2023-01-08T20:51:40.888Z,1.93
2023-01-08T20:54:14.051Z,1.83
2023-01-08T20:56:42.593Z,3.27
2023-01-08T20:59:12.326Z,1.70
2023-01-08T21:01:40.630Z,1.30
2023-01-08T21:04:09.908Z,2.20
2023-01-08T21:06:38.318Z,1.80
2023-01-08T21:09:09.074Z,1.97
2023-01-08T21:11:41.968Z,1.80
2023-01-08T21:14:11.953Z,1.97
2023-01-08T21:16:40.582Z,1.77
2023-01-08T21:19:10.488Z,1.73
2023-01-08T21:21:40.657Z,1.20
2023-01-08T21:24:12.560Z,2.40
2023-01-08T21:26:40.895Z,2.37
2023-01-08T21:29:11.530Z,1.60
2023-01-08T21:31:40.209Z,1.60
2023-01-08T21:34:09.353Z,1.90
2023-01-08T21:36:39.149Z,2.77
2023-01-08T21:39:07.789Z,1.47
2023-01-08T21:41:53.299Z,1.77
2023-01-08T21:44:42.143Z,2.07
2023-01-08T21:47:12.155Z,2.47
2023-01-08T21:49:40.435Z,1.40
2023-01-08T21:52:26.438Z,1.80
2023-01-08T21:54:54.686Z,2.37
2023-01-08T21:57:23.070Z,2.70
2023-01-08T21:59:54.012Z,2.77
2023-01-08T22:02:24.350Z,1.53
2023-01-08T22:04:55.789Z,2.63
2023-01-08T22:07:24.913Z,1.33
2023-01-08T22:09:52.944Z,1.97
2023-01-08T22:12:22.535Z,1.00
2023-01-08T22:14:52.774Z,1.87
2023-01-08T22:17:20.754Z,2.00
2023-01-08T22:19:48.765Z,1.50
2023-01-08T22:22:17.129Z,1.50
2023-01-08T22:24:45.018Z,1.10
2023-01-08T22:27:13.496Z,2.00
2023-01-08T22:29:41.430Z,1.57
2023-01-08T22:32:10.693Z,1.30
2023-01-08T22:34:38.778Z,1.77
2023-01-08T22:37:06.617Z,2.27
2023-01-08T22:39:34.651Z,2.83
2023-01-08T22:42:02.942Z,3.37
2023-01-08T22:44:30.876Z,2.00
2023-01-08T22:47:00.129Z,3.57
2023-01-08T22:49:29.677Z,2.20
2023-01-08T22:51:57.706Z,2.17
2023-01-08T22:54:25.860Z,3.10
2023-01-08T22:56:53.745Z,1.60
2023-01-08T22:59:21.964Z,1.20
2023-01-08T23:01:49.994Z,1.47
2023-01-08T23:04:18.232Z,1.67
2023-01-08T23:06:47.459Z,2.07
2023-01-08T23:09:15.745Z,2.27
2023-01-08T23:11:43.883Z,2.30
2023-01-08T23:14:15.296Z,3.00
2023-01-08T23:16:43.682Z,2.17
2023-01-08T23:19:11.796Z,1.83
2023-01-08T23:21:40.258Z,2.80
2023-01-08T23:24:13.359Z,2.10
2023-01-08T23:26:41.895Z,3.60
2023-01-08T23:29:10.657Z,1.60
2023-01-08T23:31:39.415Z,1.80
2023-01-08T23:34:07.912Z,1.73
2023-01-08T23:36:36.170Z,1.50
2023-01-08T23:39:04.779Z,2.63
2023-01-08T23:41:35.391Z,3.20
2023-01-08T23:44:05.740Z,1.30
2023-01-08T23:46:34.270Z,1.83
2023-01-08T23:49:02.211Z,1.40
2023-01-08T23:51:30.375Z,1.33
2023-01-08T23:53:58.305Z,2.23
2023-01-08T23:56:26.522Z,2.13
2023-01-08T23:58:56.081Z,1.67
